Time;durP1;ratioP1;P1;durP2;ratioP2;P2;SDS_P1;SDS_P2;PMS_P1;PMS_P2;Temp;Humidity;BMP_temperature;BMP_pressure;BME280_temperature;BME280_humidity;BME280_pressure;Samples;Min_cycle;Max_cycle;Signal;HPM_P1;HPM_P2
2022/12/02 00:01:26;;;;;;;6.03;2.47;;;8.70;99.90;;;;;;4992144;28;20129;-73
2022/12/02 00:03:54;;;;;;;;;;;8.70;99.90;;;;;;5007786;28;20179;-73
2022/12/02 00:06:31;;;;;;;4.78;2.40;;;8.70;99.90;;;;;;5017505;28;19923;-73
2022/12/02 00:09:11;;;;;;;5.57;2.72;;;8.80;99.90;;;;;;5022019;28;20037;-72
2022/12/02 00:11:39;;;;;;;4.40;1.95;;;8.80;99.90;;;;;;5018921;28;20045;-75
2022/12/02 00:14:18;;;;;;;5.50;2.13;;;8.80;99.90;;;;;;5019336;28;20045;-73
2022/12/02 00:16:44;;;;;;;5.57;2.08;;;8.80;99.90;;;;;;5035559;28;20121;-73
2022/12/02 00:19:10;;;;;;;6.25;1.98;;;8.80;99.90;;;;;;5015671;28;20136;-73
2022/12/02 00:21:35;;;;;;;7.90;2.13;;;8.80;99.90;;;;;;5013516;28;20101;-73
2022/12/02 00:24:01;;;;;;;6.15;2.58;;;8.80;99.90;;;;;;5019864;28;20121;-73
2022/12/02 00:26:27;;;;;;;4.72;2.00;;;8.80;99.90;;;;;;5012125;28;20505;-72
2022/12/02 00:28:54;;;;;;;4.88;1.90;;;8.70;99.90;;;;;;5020335;28;20041;-72
2022/12/02 00:31:20;;;;;;;5.82;1.98;;;8.60;99.90;;;;;;5011557;28;20036;-74
2022/12/02 00:33:46;;;;;;;6.13;2.10;;;8.60;99.90;;;;;;5020962;28;20508;-73
2022/12/02 00:36:12;;;;;;;5.05;2.70;;;8.50;99.90;;;;;;5022762;28;20531;-73
2022/12/02 00:38:37;;;;;;;4.57;2.03;;;8.60;99.90;;;;;;5026222;28;20128;-73
2022/12/02 00:41:03;;;;;;;6.40;1.98;;;8.60;99.90;;;;;;5023672;28;20122;-73
2022/12/02 00:46:33;;;;;;;7.93;2.78;;;8.50;99.90;;;;;;5025803;28;20412;-72
2022/12/02 00:49:06;;;;;;;4.85;2.13;;;8.50;99.90;;;;;;5022323;28;20067;-72
2022/12/02 00:51:33;;;;;;;5.80;1.80;;;8.50;99.90;;;;;;5022988;28;20030;-73
2022/12/02 00:53:59;;;;;;;4.75;2.05;;;8.40;99.90;;;;;;5021608;28;20056;-72
2022/12/02 00:56:25;;;;;;;4.75;1.40;;;8.50;99.90;;;;;;5027285;28;20037;-72
2022/12/02 00:58:51;;;;;;;5.20;1.92;;;8.50;99.90;;;;;;5015195;28;20092;-73
2022/12/02 01:01:16;;;;;;;4.63;1.77;;;8.60;99.90;;;;;;5011090;28;20554;-73
2022/12/02 01:03:42;;;;;;;5.90;2.15;;;8.50;99.90;;;;;;5022181;28;20120;-72
2022/12/02 01:06:08;;;;;;;4.28;2.15;;;8.50;99.90;;;;;;5022298;28;20488;-73
2022/12/02 01:08:34;;;;;;;4.63;1.80;;;8.50;99.90;;;;;;5027564;28;20020;-72
2022/12/02 01:11:00;;;;;;;4.38;1.83;;;8.40;99.90;;;;;;5025904;28;20166;-72
2022/12/02 01:13:28;;;;;;;6.60;2.40;;;8.40;99.90;;;;;;5026917;28;20029;-72
2022/12/02 01:15:54;;;;;;;5.22;2.50;;;8.40;99.90;;;;;;5028190;28;20034;-72
2022/12/02 01:18:20;;;;;;;4.85;2.13;;;8.30;99.90;;;;;;5022291;28;20038;-72
2022/12/02 01:20:46;;;;;;;5.85;2.58;;;8.30;99.90;;;;;;5021647;28;20061;-72
2022/12/02 01:23:12;;;;;;;5.85;2.50;;;8.30;99.90;;;;;;5019675;28;20528;-73
2022/12/02 01:25:39;;;;;;;6.88;2.50;;;8.20;99.90;;;;;;5016584;28;20107;-73
2022/12/02 01:28:05;;;;;;;5.30;2.40;;;8.20;99.90;;;;;;5022113;28;20481;-73
2022/12/02 01:30:31;;;;;;;5.60;2.45;;;8.20;99.90;;;;;;5017250;28;20039;-73
2022/12/02 01:32:57;;;;;;;7.05;3.13;;;8.10;99.90;;;;;;5023132;28;20474;-72
2022/12/02 01:35:22;;;;;;;6.80;3.20;;;8.10;99.90;;;;;;5017889;28;20099;-73
2022/12/02 01:37:48;;;;;;;7.07;3.20;;;8.20;99.90;;;;;;5015831;28;20759;-73
2022/12/02 01:40:15;;;;;;;7.38;3.28;;;8.20;99.90;;;;;;5029440;28;20049;-72
2022/12/02 01:42:41;;;;;;;5.72;2.90;;;8.10;99.90;;;;;;5019284;28;20153;-72
2022/12/02 01:45:08;;;;;;;6.10;3.10;;;8.00;99.90;;;;;;5020646;28;20071;-72
2022/12/02 01:47:35;;;;;;;6.35;3.20;;;8.00;99.90;;;;;;5018507;28;20133;-72
2022/12/02 01:50:02;;;;;;;7.18;3.42;;;8.00;99.90;;;;;;5021404;28;20053;-72
2022/12/02 01:52:28;;;;;;;7.07;3.33;;;7.90;99.90;;;;;;5017474;28;20038;-72
2022/12/02 01:54:54;;;;;;;6.57;3.58;;;7.90;99.90;;;;;;5025853;28;20408;-71
2022/12/02 01:57:27;;;;;;;6.65;3.00;;;8.00;99.90;;;;;;5018549;28;20045;-73
2022/12/02 01:59:53;;;;;;;8.18;3.20;;;8.00;99.90;;;;;;5023238;28;20077;-72
2022/12/02 02:02:27;;;;;;;5.43;2.47;;;8.00;99.90;;;;;;5024773;28;20084;-73
2022/12/02 02:04:59;;;;;;;6.20;2.90;;;8.00;99.90;;;;;;5022666;28;20034;-73
2022/12/02 02:07:26;;;;;;;6.10;2.70;;;8.10;99.90;;;;;;5017491;28;20034;-73
2022/12/02 02:09:52;;;;;;;4.95;2.63;;;8.30;99.90;;;;;;5034450;28;20057;-72
2022/12/02 02:12:19;;;;;;;8.90;3.20;;;8.40;99.90;;;;;;5021166;28;20041;-74
2022/12/02 02:14:46;;;;;;;7.25;3.33;;;8.60;99.90;;;;;;5019831;28;20046;-72
2022/12/02 02:17:12;;;;;;;7.47;4.20;;;8.70;99.90;;;;;;5017239;28;20037;-72
2022/12/02 02:19:38;;;;;;;8.93;4.45;;;8.70;99.90;;;;;;5021413;28;20045;-72
2022/12/02 02:22:15;;;;;;;9.38;5.45;;;8.60;99.90;;;;;;5020470;28;20041;-72
2022/12/02 02:24:42;;;;;;;10.48;5.57;;;8.60;99.90;;;;;;5019857;28;20041;-73
2022/12/02 02:27:10;;;;;;;;;;;8.40;99.90;;;;;;5017638;28;20037;-72
2022/12/02 02:29:36;;;;;;;10.98;5.97;;;8.40;99.90;;;;;;5021945;28;19917;-73
2022/12/02 02:32:02;;;;;;;13.45;6.13;;;8.40;99.90;;;;;;5020549;28;20146;-73
2022/12/02 02:34:29;;;;;;;10.07;5.53;;;8.40;99.90;;;;;;5026202;28;20042;-73
2022/12/02 02:36:56;;;;;;;9.02;4.88;;;8.40;99.90;;;;;;5025206;28;20044;-73
2022/12/02 02:39:23;;;;;;;10.30;5.40;;;8.40;99.90;;;;;;5024635;28;20712;-72
2022/12/02 02:41:49;;;;;;;8.50;4.63;;;8.40;99.90;;;;;;5017943;28;20062;-73
2022/12/02 02:44:16;;;;;;;9.95;4.50;;;8.30;99.90;;;;;;5020736;28;20099;-72
2022/12/02 02:46:43;;;;;;;;;;;8.40;99.90;;;;;;5024941;28;20045;-72
2022/12/02 02:49:09;;;;;;;10.63;4.57;;;8.40;99.90;;;;;;5027090;28;19919;-72
2022/12/02 02:51:35;;;;;;;7.82;4.15;;;8.40;99.90;;;;;;5018902;28;20038;-72
2022/12/02 02:54:01;;;;;;;8.82;4.22;;;8.40;99.90;;;;;;5025203;28;20053;-73
2022/12/02 02:56:27;;;;;;;9.18;5.10;;;8.40;99.90;;;;;;5024757;28;20060;-73
2022/12/02 02:58:53;;;;;;;8.70;4.78;;;8.40;99.90;;;;;;5023642;28;20041;-73
2022/12/02 03:01:35;;;;;;;11.15;5.07;;;8.40;99.90;;;;;;5020239;28;20520;-71
2022/12/02 03:04:06;;;;;;;8.25;4.97;;;8.40;99.90;;;;;;5018878;28;20536;-73
2022/12/02 03:06:33;;;;;;;9.43;4.68;;;8.40;99.90;;;;;;5021280;28;20150;-75
2022/12/02 03:09:00;;;;;;;;;;;8.40;99.90;;;;;;5022009;28;20053;-74
2022/12/02 03:11:27;;;;;;;8.98;4.63;;;8.40;99.90;;;;;;5026122;28;19913;-75
2022/12/02 03:13:55;;;;;;;10.43;4.72;;;8.40;99.90;;;;;;5023369;28;20037;-74
2022/12/02 03:16:23;;;;;;;9.63;4.80;;;8.40;99.90;;;;;;5020141;28;20034;-75
2022/12/02 03:18:51;;;;;;;10.02;4.82;;;8.40;99.90;;;;;;5020829;28;20785;-75
2022/12/02 03:21:19;;;;;;;9.85;4.55;;;8.40;99.90;;;;;;5020470;28;20653;-75
2022/12/02 03:23:46;;;;;;;9.02;4.63;;;8.40;99.90;;;;;;5018772;28;20125;-75
2022/12/02 03:26:14;;;;;;;10.65;4.65;;;8.40;99.90;;;;;;5022269;28;20053;-74
2022/12/02 03:28:40;;;;;;;7.07;3.47;;;8.50;99.90;;;;;;5023708;28;20608;-74
2022/12/02 03:31:07;;;;;;;8.43;3.42;;;8.50;99.90;;;;;;5018163;28;20030;-75
2022/12/02 03:33:33;;;;;;;8.40;3.08;;;8.60;99.90;;;;;;5027734;28;20677;-75
2022/12/02 03:35:59;;;;;;;7.70;3.55;;;8.70;99.90;;;;;;5021496;28;20067;-74
2022/12/02 03:38:26;;;;;;;5.63;2.53;;;8.70;99.90;;;;;;5019509;28;20033;-74
2022/12/02 03:40:53;;;;;;;5.90;3.13;;;8.80;99.90;;;;;;5027242;28;20477;-75
2022/12/02 03:43:18;;;;;;;6.05;2.40;;;8.80;99.90;;;;;;5035019;28;20037;-75
2022/12/02 03:45:44;;;;;;;5.70;2.38;;;8.80;99.90;;;;;;5028529;28;20072;-75
2022/12/02 03:48:12;;;;;;;6.43;2.53;;;8.80;99.90;;;;;;5021244;28;20037;-75
2022/12/02 03:50:39;;;;;;;5.97;2.40;;;8.80;99.90;;;;;;5017151;28;20714;-75
2022/12/02 03:53:05;;;;;;;;;;;8.80;99.90;;;;;;5020995;28;20049;-74
2022/12/02 03:55:31;;;;;;;4.65;2.00;;;8.80;99.90;;;;;;5023653;28;19914;-75
2022/12/02 03:58:04;;;;;;;4.40;1.77;;;8.80;99.90;;;;;;5026726;28;20052;-74
2022/12/02 04:00:31;;;;;;;4.10;1.45;;;8.80;99.90;;;;;;5025059;28;20026;-74
2022/12/02 04:02:56;;;;;;;4.70;1.60;;;8.80;99.90;;;;;;5022806;28;20052;-75
2022/12/02 04:05:24;;;;;;;4.07;1.98;;;8.80;99.90;;;;;;5019603;28;25200;-76
2022/12/02 04:07:50;;;;;;;3.63;1.48;;;8.80;99.90;;;;;;5017450;28;20042;-76
2022/12/02 04:10:16;;;;;;;3.58;1.38;;;8.80;99.90;;;;;;5006246;28;20033;-74
2022/12/02 04:12:42;;;;;;;4.85;1.85;;;8.80;99.90;;;;;;5019329;28;20038;-74
2022/12/02 04:15:08;;;;;;;3.75;1.33;;;8.80;99.90;;;;;;5015823;28;20052;-75
2022/12/02 04:17:34;;;;;;;3.42;1.30;;;8.80;99.90;;;;;;5022180;28;20120;-74
2022/12/02 04:20:00;;;;;;;6.53;1.55;;;8.80;99.90;;;;;;5017619;28;20116;-74
2022/12/02 04:22:25;;;;;;;2.95;1.20;;;8.90;99.90;;;;;;5007899;28;20046;-75
2022/12/02 04:24:51;;;;;;;2.92;0.93;;;8.90;99.90;;;;;;5024777;28;20045;-75
2022/12/02 04:27:17;;;;;;;3.17;1.10;;;8.90;99.90;;;;;;5023520;28;20128;-75
2022/12/02 04:29:43;;;;;;;3.67;1.50;;;8.90;99.90;;;;;;5022243;28;20045;-74
2022/12/02 04:32:09;;;;;;;3.35;1.10;;;8.90;99.90;;;;;;5023798;28;20041;-75
2022/12/02 04:34:35;;;;;;;3.25;1.25;;;8.90;99.90;;;;;;5025614;28;20117;-74
2022/12/02 04:37:01;;;;;;;3.75;1.05;;;8.90;99.90;;;;;;5019301;28;20045;-75
2022/12/02 04:39:26;;;;;;;2.90;1.00;;;8.90;99.90;;;;;;5024203;28;20056;-75
2022/12/02 04:41:56;;;;;;;3.83;1.38;;;8.90;99.90;;;;;;5024076;28;20042;-75
2022/12/02 04:44:23;;;;;;;3.92;1.20;;;9.00;99.90;;;;;;5022517;28;21090;-74
2022/12/02 04:46:51;;;;;;;3.63;1.30;;;9.10;99.90;;;;;;5017188;28;20474;-74
2022/12/02 04:49:17;;;;;;;3.53;1.27;;;9.10;99.90;;;;;;5023064;28;20469;-74
2022/12/02 04:51:43;;;;;;;3.22;1.30;;;9.10;99.90;;;;;;5015788;28;20037;-76
2022/12/02 04:54:10;;;;;;;3.78;1.58;;;9.10;99.90;;;;;;5019845;28;20034;-74
2022/12/02 04:56:36;;;;;;;;;;;9.10;99.90;;;;;;5021031;28;20080;-75
2022/12/02 04:59:02;;;;;;;4.00;1.42;;;9.10;99.90;;;;;;5018744;28;20388;-75
2022/12/02 05:01:28;;;;;;;6.03;1.50;;;9.10;99.90;;;;;;5020906;28;20029;-74
2022/12/02 05:03:53;;;;;;;4.55;1.70;;;9.10;99.90;;;;;;5018555;28;20049;-75
2022/12/02 05:06:19;;;;;;;3.50;1.40;;;9.10;99.90;;;;;;5024076;28;20030;-75
2022/12/02 05:08:45;;;;;;;3.38;1.40;;;9.10;99.90;;;;;;5020330;28;20508;-75
2022/12/02 05:11:11;;;;;;;4.07;1.23;;;9.10;99.90;;;;;;5023639;28;20101;-74
2022/12/02 05:13:39;;;;;;;3.13;1.15;;;9.10;99.90;;;;;;5018383;28;20045;-75
2022/12/02 05:16:05;;;;;;;3.75;1.23;;;9.10;99.90;;;;;;5024405;28;20048;-75
2022/12/02 05:18:31;;;;;;;3.42;1.20;;;9.10;99.90;;;;;;5027255;28;20473;-75
2022/12/02 05:20:56;;;;;;;3.47;1.25;;;9.10;99.90;;;;;;5024432;28;20124;-75
2022/12/02 05:23:22;;;;;;;4.25;1.30;;;9.10;99.90;;;;;;5021781;28;20065;-75
2022/12/02 05:25:51;;;;;;;3.40;1.30;;;9.10;99.90;;;;;;5026736;28;20041;-75
2022/12/02 05:28:17;;;;;;;4.82;1.40;;;9.10;99.90;;;;;;5030116;28;20037;-75
2022/12/02 05:30:42;;;;;;;3.75;1.38;;;9.10;99.90;;;;;;5021858;28;20105;-75
2022/12/02 05:33:08;;;;;;;3.72;1.50;;;9.10;99.90;;;;;;5022446;28;20061;-74
2022/12/02 05:35:34;;;;;;;3.95;1.50;;;9.10;99.90;;;;;;5035639;28;20061;-75
2022/12/02 05:37:59;;;;;;;6.35;1.88;;;9.10;99.90;;;;;;5020102;28;20061;-74
2022/12/02 05:40:25;;;;;;;3.67;1.40;;;9.10;99.90;;;;;;5008918;28;20041;-75
2022/12/02 05:42:51;;;;;;;4.25;1.80;;;9.10;99.90;;;;;;5022290;28;20477;-75
2022/12/02 05:45:22;;;;;;;3.58;1.45;;;9.10;99.90;;;;;;5020277;28;20040;-74
2022/12/02 05:47:54;;;;;;;3.85;1.33;;;9.10;99.90;;;;;;5029103;28;20034;-75
2022/12/02 05:50:21;;;;;;;4.35;1.63;;;9.10;99.90;;;;;;5022769;28;20061;-75
2022/12/02 05:52:50;;;;;;;4.43;1.50;;;9.10;99.90;;;;;;5024458;28;20038;-74
2022/12/02 05:55:21;;;;;;;4.32;1.60;;;9.10;99.90;;;;;;5026853;28;20038;-75
2022/12/02 05:57:47;;;;;;;3.92;1.50;;;9.10;99.90;;;;;;5040408;28;20037;-76
2022/12/02 06:00:17;;;;;;;4.35;1.42;;;9.10;99.90;;;;;;5036511;28;20048;-75
2022/12/02 06:02:49;;;;;;;4.63;1.38;;;9.10;99.90;;;;;;5020565;28;20516;-76
2022/12/02 06:05:23;;;;;;;4.22;1.67;;;9.10;99.90;;;;;;5020089;28;20116;-75
2022/12/02 06:07:52;;;;;;;4.00;1.63;;;9.10;99.90;;;;;;5021366;28;20033;-76
2022/12/02 06:10:31;;;;;;;3.17;1.30;;;9.10;99.90;;;;;;5026875;28;20044;-76
2022/12/02 06:13:11;;;;;;;6.07;1.70;;;9.00;99.90;;;;;;5019422;28;20667;-74
2022/12/02 06:15:37;;;;;;;4.15;1.80;;;8.90;99.90;;;;;;5023391;28;20042;-74
2022/12/02 06:18:13;;;;;;;4.15;1.92;;;8.90;99.90;;;;;;5026380;28;20052;-75
2022/12/02 06:20:39;;;;;;;5.03;1.67;;;8.80;99.90;;;;;;5008821;28;20683;-74
2022/12/02 06:23:13;;;;;;;4.25;1.67;;;8.80;99.90;;;;;;5022816;28;20045;-75
2022/12/02 06:25:38;;;;;;;4.15;1.63;;;8.70;99.90;;;;;;5026818;28;20037;-75
2022/12/02 06:28:28;;;;;;;6.18;2.97;;;8.70;99.90;;;;;;5030090;28;20052;-75
2022/12/02 06:31:08;;;;;;;4.28;1.42;;;8.60;99.90;;;;;;5010866;28;20097;-74
2022/12/02 06:33:36;;;;;;;4.22;1.73;;;8.50;99.90;;;;;;5008649;28;20038;-75
2022/12/02 06:36:11;;;;;;;4.78;1.70;;;8.50;99.90;;;;;;5024711;28;20029;-74
2022/12/02 06:38:49;;;;;;;3.28;1.40;;;8.40;99.90;;;;;;5026308;28;20033;-76
2022/12/02 06:41:22;;;;;;;5.18;1.90;;;8.40;99.90;;;;;;5021415;28;20428;-75
2022/12/02 06:46:35;;;;;;;4.00;1.63;;;8.30;99.90;;;;;;5021150;28;20036;-75
2022/12/02 06:49:19;;;;;;;4.88;1.73;;;8.30;99.90;;;;;;5028908;28;20553;-76
2022/12/02 06:51:46;;;;;;;4.45;1.42;;;8.30;99.90;;;;;;5039967;28;20038;-75
2022/12/02 06:54:20;;;;;;;4.53;1.80;;;8.30;99.90;;;;;;5030059;28;20038;-75
2022/12/02 06:56:47;;;;;;;4.00;1.55;;;8.30;99.90;;;;;;5035867;28;20052;-75
2022/12/02 06:59:17;;;;;;;5.07;1.88;;;8.30;99.90;;;;;;5011764;28;20038;-75
2022/12/02 07:01:43;;;;;;;5.93;1.67;;;8.40;99.90;;;;;;5019752;28;20037;-75
2022/12/02 07:04:28;;;;;;;4.07;1.67;;;8.40;99.90;;;;;;5022811;28;20517;-75
2022/12/02 07:06:56;;;;;;;;;;;8.40;99.90;;;;;;5025946;28;20022;-76
2022/12/02 07:09:41;;;;;;;4.78;1.83;;;8.40;99.90;;;;;;5019969;28;19993;-76
2022/12/02 07:12:44;;;;;;;4.13;1.27;;;8.50;99.90;;;;;;4998413;28;20044;-76
2022/12/02 07:15:29;;;;;;;7.30;3.08;;;8.60;99.90;;;;;;4949629;28;20028;-75
2022/12/02 07:18:01;;;;;;;3.88;1.20;;;8.60;99.90;;;;;;5018866;28;20081;-75
2022/12/02 07:20:34;;;;;;;5.03;1.83;;;8.70;99.90;;;;;;5015654;28;20068;-75
2022/12/02 07:23:18;;;;;;;4.18;1.50;;;8.80;99.90;;;;;;5014167;28;20033;-75
2022/12/02 07:25:49;;;;;;;4.82;1.60;;;8.80;99.90;;;;;;5018249;28;20030;-75
2022/12/02 07:28:34;;;;;;;4.80;1.67;;;9.00;99.90;;;;;;5018093;28;20092;-75
2022/12/02 07:31:20;;;;;;;4.40;1.75;;;9.10;99.90;;;;;;5014746;28;20026;-75
2022/12/02 07:33:46;;;;;;;3.40;1.33;;;9.20;99.90;;;;;;5014106;28;20037;-75
2022/12/02 07:36:12;;;;;;;3.50;1.30;;;9.30;99.90;;;;;;5012170;28;20127;-76
2022/12/02 07:38:38;;;;;;;4.43;1.70;;;9.30;99.90;;;;;;5019485;28;20073;-75
2022/12/02 07:41:05;;;;;;;6.30;1.67;;;9.40;99.90;;;;;;5019221;28;20030;-76
2022/12/02 07:43:31;;;;;;;4.30;1.55;;;9.40;99.90;;;;;;5028126;28;20495;-75
2022/12/02 07:45:57;;;;;;;4.55;1.50;;;9.40;99.90;;;;;;5031444;28;20160;-75
2022/12/02 07:48:23;;;;;;;10.02;2.22;;;9.40;99.90;;;;;;5018876;28;20438;-76
2022/12/02 07:50:49;;;;;;;4.90;1.52;;;9.40;99.90;;;;;;5021792;28;20108;-75
2022/12/02 07:53:15;;;;;;;5.22;2.10;;;9.40;99.90;;;;;;5001550;28;20485;-76
2022/12/02 07:55:41;;;;;;;5.00;2.10;;;9.40;99.90;;;;;;5019425;28;20042;-74
2022/12/02 07:58:07;;;;;;;5.05;1.70;;;9.30;99.90;;;;;;5022854;28;20030;-77
2022/12/02 08:00:34;;;;;;;4.80;1.83;;;9.20;99.90;;;;;;5025824;28;20042;-76
2022/12/02 08:03:00;;;;;;;;;;;9.20;99.90;;;;;;5027371;28;20043;-75
2022/12/02 08:05:27;;;;;;;5.85;2.15;;;9.20;99.90;;;;;;5018475;28;19936;-75
2022/12/02 08:07:53;;;;;;;5.65;2.22;;;9.10;99.90;;;;;;5026323;28;20034;-76
2022/12/02 08:10:19;;;;;;;5.68;2.45;;;9.10;99.90;;;;;;5020760;28;20104;-75
2022/12/02 08:12:45;;;;;;;73.28;29.15;;;9.00;99.90;;;;;;5019249;28;20045;-75
2022/12/02 08:15:12;;;;;;;6.57;2.67;;;9.00;99.90;;;;;;5022933;28;20045;-75
2022/12/02 08:17:39;;;;;;;6.03;2.22;;;9.10;99.90;;;;;;5023591;28;20037;-75
2022/12/02 08:20:07;;;;;;;4.53;2.10;;;9.20;99.90;;;;;;5024514;28;20026;-75
2022/12/02 08:22:33;;;;;;;5.35;2.55;;;9.40;99.90;;;;;;5036761;28;20022;-76
2022/12/02 08:24:59;;;;;;;6.68;2.03;;;9.60;99.90;;;;;;5023097;28;20029;-75
2022/12/02 08:27:25;;;;;;;6.03;2.47;;;9.80;99.90;;;;;;5022951;28;20535;-76
2022/12/02 08:29:51;;;;;;;4.80;2.60;;;9.90;99.90;;;;;;5017397;28;20351;-75
2022/12/02 08:32:18;;;;;;;6.68;1.75;;;10.10;99.90;;;;;;5021678;28;20103;-76
2022/12/02 08:34:43;;;;;;;5.93;2.65;;;10.20;99.90;;;;;;5026374;28;20053;-75
2022/12/02 08:37:10;;;;;;;6.38;2.20;;;10.60;99.90;;;;;;5025687;28;20059;-76
2022/12/02 08:39:36;;;;;;;7.35;2.72;;;10.40;99.90;;;;;;5006337;28;20053;-75
2022/12/02 08:42:03;;;;;;;6.03;2.50;;;11.10;99.90;;;;;;5018062;28;20535;-75
2022/12/02 08:44:29;;;;;;;6.47;2.58;;;11.90;99.50;;;;;;5020123;28;20038;-76
2022/12/02 08:46:54;;;;;;;5.40;2.08;;;12.00;98.70;;;;;;5021983;28;20068;-75
2022/12/02 08:49:21;;;;;;;7.63;2.35;;;12.20;98.20;;;;;;5020392;28;20022;-75
2022/12/02 08:51:47;;;;;;;4.60;2.10;;;11.80;98.00;;;;;;5019526;28;20117;-75
2022/12/02 08:54:14;;;;;;;6.30;2.50;;;11.40;98.50;;;;;;5025762;28;20049;-76
2022/12/02 08:56:41;;;;;;;4.40;1.88;;;11.20;98.80;;;;;;5027417;28;20064;-75
2022/12/02 08:59:07;;;;;;;4.60;2.20;;;11.00;98.90;;;;;;5009139;28;20088;-75
2022/12/02 09:01:33;;;;;;;4.72;1.67;;;10.80;99.00;;;;;;5027026;28;20021;-75
2022/12/02 09:04:00;;;;;;;7.03;2.38;;;10.70;99.20;;;;;;5029504;28;20034;-76
2022/12/02 09:06:26;;;;;;;6.00;2.35;;;10.60;99.60;;;;;;5021940;28;20037;-74
2022/12/02 09:08:52;;;;;;;5.60;1.95;;;10.60;99.70;;;;;;5025444;28;20116;-75
2022/12/02 09:11:18;;;;;;;6.03;1.90;;;10.60;99.60;;;;;;5040214;28;20940;-76
2022/12/02 09:13:44;;;;;;;5.47;1.95;;;10.70;99.40;;;;;;5039963;28;20041;-75
2022/12/02 09:16:10;;;;;;;5.20;1.70;;;10.70;99.30;;;;;;5028239;28;20034;-76
2022/12/02 09:18:36;;;;;;;6.18;1.90;;;10.80;99.30;;;;;;5025394;28;20053;-75
2022/12/02 09:21:04;;;;;;;4.93;2.25;;;11.00;99.10;;;;;;5025283;28;20109;-75
2022/12/02 09:23:30;;;;;;;5.95;2.15;;;12.10;98.30;;;;;;5024743;28;20050;-76
2022/12/02 09:25:57;;;;;;;4.53;1.90;;;12.90;96.50;;;;;;5027807;28;20030;-75
2022/12/02 09:28:24;;;;;;;6.25;1.80;;;12.60;96.40;;;;;;5025058;28;20094;-75
2022/12/02 09:30:50;;;;;;;4.20;1.67;;;12.50;96.40;;;;;;5023839;28;20105;-75
2022/12/02 09:33:16;;;;;;;4.57;1.70;;;12.00;96.50;;;;;;5028575;28;20061;-75
2022/12/02 09:35:43;;;;;;;5.65;1.60;;;11.90;96.90;;;;;;5023127;28;20127;-75
2022/12/02 09:38:08;;;;;;;;;;;11.70;97.30;;;;;;5020608;28;20036;-75
2022/12/02 09:40:35;;;;;;;6.40;1.85;;;11.70;97.40;;;;;;5023965;28;19976;-76
2022/12/02 09:43:02;;;;;;;4.45;2.30;;;11.70;97.50;;;;;;5026041;28;20029;-76
2022/12/02 09:45:29;;;;;;;5.90;2.08;;;11.80;97.40;;;;;;5029803;28;20053;-77
2022/12/02 09:47:55;;;;;;;4.00;1.85;;;11.90;97.40;;;;;;5029774;28;20051;-76
2022/12/02 09:50:21;;;;;;;5.22;2.13;;;11.90;97.20;;;;;;5029919;28;20125;-75
2022/12/02 09:52:48;;;;;;;5.22;2.03;;;12.00;97.20;;;;;;5025297;28;20563;-76
2022/12/02 09:55:16;;;;;;;5.20;2.10;;;12.20;97.20;;;;;;5024671;28;20068;-76
2022/12/02 09:57:42;;;;;;;5.65;2.47;;;12.20;97.10;;;;;;5021725;28;20041;-75
2022/12/02 10:00:19;;;;;;;5.43;1.83;;;12.50;96.90;;;;;;5024629;28;20049;-76
2022/12/02 10:02:48;;;;;;;4.93;2.22;;;13.00;96.60;;;;;;5024465;28;20038;-76
2022/12/02 10:05:20;;;;;;;6.55;2.72;;;13.30;96.00;;;;;;5026004;28;20400;-77
2022/12/02 10:07:47;;;;;;;6.38;2.25;;;13.20;95.60;;;;;;5024357;28;20041;-75
2022/12/02 10:10:17;;;;;;;9.05;3.08;;;13.00;96.10;;;;;;5027864;28;20487;-76
2022/12/02 10:12:43;;;;;;;6.32;2.50;;;12.90;96.00;;;;;;5011891;28;20046;-75
2022/12/02 10:15:22;;;;;;;5.53;2.40;;;12.90;96.00;;;;;;5040051;28;20075;-76
2022/12/02 10:17:48;;;;;;;6.00;2.33;;;12.80;96.10;;;;;;5022377;28;20511;-76
2022/12/02 10:20:26;;;;;;;4.78;2.13;;;12.80;96.30;;;;;;5040308;28;20036;-76
2022/12/02 10:23:14;;;;;;;5.35;2.38;;;12.70;96.20;;;;;;5028842;28;20041;-76
2022/12/02 10:25:46;;;;;;;4.65;1.95;;;12.70;96.20;;;;;;5028148;28;20739;-76
2022/12/02 10:28:24;;;;;;;5.32;2.22;;;12.70;95.90;;;;;;5025467;28;20042;-76
2022/12/02 10:31:03;;;;;;;4.63;2.42;;;12.70;96.00;;;;;;5023050;28;20040;-76
2022/12/02 10:33:37;;;;;;;5.57;2.45;;;12.90;96.00;;;;;;5027235;28;20063;-76
2022/12/02 10:36:03;;;;;;;;;;;12.90;96.00;;;;;;5020615;28;20046;-76
2022/12/02 10:38:43;;;;;;;6.63;2.28;;;13.00;95.90;;;;;;5023821;28;19999;-75
2022/12/02 10:41:18;;;;;;;6.30;2.40;;;13.00;95.90;;;;;;5026203;28;20034;-75
2022/12/02 10:44:05;;;;;;;5.85;2.20;;;13.10;95.80;;;;;;5024128;28;20040;-76
2022/12/02 10:46:33;;;;;;;4.45;2.13;;;13.10;95.90;;;;;;5022152;28;20042;-76
2022/12/02 10:49:36;;;;;;;5.40;2.10;;;13.20;95.90;;;;;;5010016;28;20132;-75
2022/12/02 10:52:08;;;;;;;5.93;2.25;;;13.20;96.10;;;;;;5025397;28;20065;-75
2022/12/02 10:54:37;;;;;;;7.35;2.60;;;13.30;95.90;;;;;;5027058;28;20025;-76
2022/12/02 10:57:03;;;;;;;6.45;2.42;;;13.40;95.80;;;;;;5020889;28;20060;-76
2022/12/02 10:59:31;;;;;;;5.57;2.60;;;13.70;95.40;;;;;;5021296;28;20038;-76
2022/12/02 11:01:59;;;;;;;7.07;2.95;;;13.60;95.30;;;;;;5019769;28;20612;-76
2022/12/02 11:04:27;;;;;;;7.10;3.40;;;13.80;95.50;;;;;;5023429;28;20417;-75
2022/12/02 11:06:54;;;;;;;9.48;2.95;;;14.10;95.20;;;;;;5025922;28;20038;-75
2022/12/02 11:09:23;;;;;;;7.43;3.10;;;14.20;94.80;;;;;;5039316;28;20172;-76
2022/12/02 11:11:50;;;;;;;5.43;2.83;;;14.30;95.00;;;;;;5037074;28;20085;-75
2022/12/02 11:14:38;;;;;;;6.32;2.78;;;14.30;94.80;;;;;;5021751;28;20037;-77
2022/12/02 11:17:10;;;;;;;6.72;2.55;;;14.80;94.60;;;;;;5018680;28;20040;-76
2022/12/02 11:19:36;;;;;;;7.18;2.63;;;14.90;94.20;;;;;;5020213;28;20048;-75
2022/12/02 11:22:03;;;;;;;6.63;2.45;;;15.20;94.00;;;;;;5021728;28;20048;-75
2022/12/02 11:24:29;;;;;;;;;;;15.20;93.80;;;;;;5025506;28;20092;-76
2022/12/02 11:27:03;;;;;;;7.50;3.67;;;15.50;93.60;;;;;;5030391;28;20094;-76
2022/12/02 11:29:41;;;;;;;6.35;2.60;;;16.30;93.30;;;;;;5027943;28;20039;-75
2022/12/02 11:32:25;;;;;;;6.38;3.53;;;16.60;92.80;;;;;;5018042;28;20041;-75
2022/12/02 11:34:52;;;;;;;5.72;2.55;;;16.50;92.70;;;;;;5019200;28;20096;-76
2022/12/02 11:37:27;;;;;;;6.65;3.08;;;18.50;91.50;;;;;;5025608;28;20048;-76
2022/12/02 11:40:07;;;;;;;7.55;3.22;;;19.40;90.20;;;;;;5023784;28;20049;-76
2022/12/02 11:42:34;;;;;;;6.15;3.15;;;20.30;90.00;;;;;;5026399;28;20045;-76
2022/12/02 11:45:32;;;;;;;8.25;3.70;;;20.60;89.00;;;;;;5028152;28;20041;-75
2022/12/02 11:47:59;;;;;;;8.15;3.45;;;21.00;87.90;;;;;;5020916;28;20052;-72
2022/12/02 11:50:31;;;;;;;5.13;2.70;;;20.90;87.10;;;;;;5016697;28;20092;-73
2022/12/02 11:53:04;;;;;;;6.22;3.28;;;21.40;86.70;;;;;;5019796;28;20025;-73
2022/12/02 11:55:34;;;;;;;;;;;21.30;86.20;;;;;;5022039;28;20124;-73
2022/12/02 11:58:01;;;;;;;6.38;2.92;;;21.80;85.50;;;;;;5017559;28;20398;-74
2022/12/02 12:00:33;;;;;;;6.38;2.92;;;22.10;84.70;;;;;;5020311;28;20041;-74
2022/12/02 12:03:08;;;;;;;10.20;3.33;;;22.20;84.10;;;;;;5019223;28;20038;-73
2022/12/02 12:05:34;;;;;;;5.82;3.42;;;22.80;83.60;;;;;;5018457;28;20055;-73
2022/12/02 12:08:01;;;;;;;5.18;2.75;;;23.30;82.70;;;;;;5015915;28;20068;-73
2022/12/02 12:10:36;;;;;;;8.82;3.00;;;23.60;81.80;;;;;;5025141;28;20057;-74
2022/12/02 12:13:14;;;;;;;5.40;2.95;;;23.70;80.80;;;;;;5009838;28;20072;-74
2022/12/02 12:15:57;;;;;;;5.07;2.78;;;23.60;80.40;;;;;;5002447;28;20033;-73
2022/12/02 12:18:38;;;;;;;4.75;2.70;;;23.50;80.70;;;;;;5017566;28;20041;-72
2022/12/02 12:21:05;;;;;;;7.15;2.80;;;23.40;80.10;;;;;;5017035;28;20034;-72
2022/12/02 12:23:36;;;;;;;6.00;2.80;;;21.20;81.70;;;;;;5017188;28;20030;-73
2022/12/02 12:26:02;;;;;;;7.75;2.90;;;19.40;84.10;;;;;;5019659;28;20030;-74
2022/12/02 12:28:34;;;;;;;6.13;3.20;;;18.30;86.40;;;;;;5024701;28;20318;-74
2022/12/02 12:31:02;;;;;;;6.85;3.13;;;17.60;87.90;;;;;;5025602;28;20022;-73
2022/12/02 12:33:29;;;;;;;6.60;2.83;;;17.20;89.00;;;;;;5025175;28;20212;-74
2022/12/02 12:35:55;;;;;;;;;;;17.00;89.50;;;;;;5027486;28;20037;-75
2022/12/02 12:38:22;;;;;;;5.53;3.33;;;17.10;89.70;;;;;;5032526;28;19917;-73
2022/12/02 12:40:48;;;;;;;5.47;3.00;;;17.20;89.80;;;;;;5026172;28;20033;-75
2022/12/02 12:43:14;;;;;;;6.35;2.97;;;17.20;90.00;;;;;;5026753;28;20045;-73
2022/12/02 12:45:40;;;;;;;8.18;3.78;;;17.10;90.10;;;;;;5030341;28;20060;-73
2022/12/02 12:48:06;;;;;;;8.90;3.10;;;17.10;90.10;;;;;;5029511;28;20053;-74
2022/12/02 12:50:32;;;;;;;8.65;3.22;;;17.20;90.10;;;;;;5030605;28;20053;-73
2022/12/02 12:52:57;;;;;;;6.18;2.83;;;17.30;90.00;;;;;;5031233;28;24113;-74
2022/12/02 12:55:24;;;;;;;5.25;2.88;;;17.20;90.10;;;;;;5029284;28;20044;-74
2022/12/02 12:57:49;;;;;;;7.85;3.22;;;17.10;90.20;;;;;;5026805;28;20037;-74
2022/12/02 13:00:15;;;;;;;8.40;2.95;;;17.40;90.20;;;;;;5027896;28;20879;-73
2022/12/02 13:02:41;;;;;;;6.68;3.15;;;18.80;89.00;;;;;;5027128;28;20165;-73
2022/12/02 13:05:07;;;;;;;7.50;3.40;;;18.80;87.60;;;;;;5020884;28;20560;-74
2022/12/02 13:07:33;;;;;;;7.03;3.88;;;18.40;88.20;;;;;;5020254;28;20389;-73
2022/12/02 13:10:00;;;;;;;6.30;2.97;;;17.70;89.20;;;;;;5019261;28;20033;-74